aviador You're here:

YMLT Decoded Metar

LAUNCESTON in AUSTRALIA
Report Time2017-12-11 09:00:00
UTC Time2017-12-11 09:12:15
Flight Rules vfr VFR
Wind350° at 09 kt
W.Decomp.*RWY 32: 8.7 kt HW 2.5 kt RCW
RWY 36: 8.2 kt HW 3.7 kt LCW
W.Rank350° ranks 2
Current wind is below 350° avg. (11.2)
Visibility9999 m
Phenomena:N/A
Clouds:N/A
Expected CloudBase > 4,000 ft AGL from Temp-Dew spread
CeilingNone
Temp20°C (ISA +6)
Dew Point10°C (53% RH)
AAT16.8°C
QNH1015 hPa
Density Alt1,404 ft
Elevation584 ft
Report Wrong Elevation
Raw Report
METAR YMLT 110900Z AUTO 35009KT 9999 // NCD 20/10 Q1015
RF00.0/000.0=

Extra information for YMLT:More info

Metar Taf Metar & Taf Last 4 Metars F.Rules Stats Wind Profile Meteogram Temp Stats Airport Information Weather charts Add Link Nearby VenuesMetar ALERT Operation Metar Decoded Social comments